ADDS TAF Data INFO
IDs: Format: Raw Decoded Include METARs

Data at: 0935 UTC 11 Dec 2017

KSRQ 110525Z 1106/1206 03003KT P6SM SKC
  FM111700 31007KT P6SM FEW250